Time,TemperatureF,DewpointF,PressureIn,WindDirection,WindDirectionDegrees,WindSpeedMPH,WindSpeedGustMPH,Humidity,HourlyPrecipIn,Conditions,Clouds,dailyrainin,SoftwareType,DateUTC
2013-06-22 00:08:00,72.0,66.0,30.01,West,277,0.0,0.0,80,0.00,,,0.00,weatherlink.com 1.10,2013-06-22 04:08:00,
2013-06-22 00:23:00,71.9,66.0,30.01,West,280,0.0,0.0,81,0.00,,,0.00,weatherlink.com 1.10,2013-06-22 04:23:00,
2013-06-22 00:38:00,71.6,66.0,30.01,West,278,0.0,0.0,82,0.00,,,0.00,weatherlink.com 1.10,2013-06-22 04:38:00,
2013-06-22 00:53:00,71.4,66.0,30.00,West,278,0.0,0.0,82,0.00,,,0.00,weatherlink.com 1.10,2013-06-22 04:53:00,
2013-06-22 01:08:00,71.3,66.0,29.99,West,278,0.0,0.0,82,0.00,,,0.00,weatherlink.com 1.10,2013-06-22 05:08:00,
2013-06-22 01:23:00,71.1,66.0,30.00,West,278,0.0,0.0,83,0.00,,,0.00,weatherlink.com 1.10,2013-06-22 05:23:00,
2013-06-22 01:38:00,70.8,65.0,29.99,West,278,0.0,0.0,83,0.00,,,0.00,weatherlink.com 1.10,2013-06-22 05:38:00,
2013-06-22 01:54:00,70.4,65.0,29.99,West,278,0.0,0.0,84,0.00,,,0.00,weatherlink.com 1.10,2013-06-22 05:54:00,
2013-06-22 02:09:00,70.1,65.0,29.97,West,278,0.0,0.0,85,0.00,,,0.00,weatherlink.com 1.10,2013-06-22 06:09:00,
2013-06-22 02:24:00,69.8,65.0,29.96,West,278,0.0,0.0,85,0.00,,,0.00,weatherlink.com 1.10,2013-06-22 06:24:00,
2013-06-22 02:39:00,69.5,65.0,29.96,West,278,0.0,0.0,86,0.00,,,0.00,weatherlink.com 1.10,2013-06-22 06:39:00,
2013-06-22 02:54:00,69.5,66.0,29.96,West,278,0.0,0.0,87,0.00,,,0.00,weatherlink.com 1.10,2013-06-22 06:54:00,
2013-06-22 03:09:00,69.4,65.0,29.96,West,278,0.0,0.0,87,0.00,,,0.00,weatherlink.com 1.10,2013-06-22 07:09:00,
2013-06-22 03:24:00,69.2,65.0,29.95,West,278,0.0,0.0,87,0.00,,,0.00,weatherlink.com 1.10,2013-06-22 07:24:00,
2013-06-22 03:39:00,69.2,66.0,29.95,West,278,0.0,0.0,88,0.00,,,0.00,weatherlink.com 1.10,2013-06-22 07:39:00,
2013-06-22 03:54:00,69.2,66.0,29.95,West,278,0.0,0.0,88,0.00,,,0.00,weatherlink.com 1.10,2013-06-22 07:54:00,
2013-06-22 04:09:00,69.2,66.0,29.96,West,278,0.0,0.0,88,0.00,,,0.00,weatherlink.com 1.10,2013-06-22 08:09:00,
2013-06-22 04:24:00,69.2,66.0,29.95,ESE,120,0.0,0.0,88,0.00,,,0.00,weatherlink.com 1.10,2013-06-22 08:24:00,
2013-06-22 04:39:00,69.0,65.0,29.94,SE,128,0.0,0.0,88,0.00,,,0.00,weatherlink.com 1.10,2013-06-22 08:39:00,
2013-06-22 04:54:00,68.5,65.0,29.95,SE,124,0.0,0.0,89,0.00,,,0.00,weatherlink.com 1.10,2013-06-22 08:54:00,
2013-06-22 05:09:00,68.3,65.0,29.96,NNW,330,0.0,0.0,90,0.00,,,0.00,weatherlink.com 1.10,2013-06-22 09:09:00,
2013-06-22 05:24:00,68.4,65.0,29.96,NNW,330,0.0,0.0,90,0.00,,,0.00,weatherlink.com 1.10,2013-06-22 09:24:00,
2013-06-22 05:39:00,68.4,65.0,29.95,NNW,330,0.0,0.0,90,0.00,,,0.00,weatherlink.com 1.10,2013-06-22 09:39:00,
2013-06-22 05:54:00,68.4,65.0,29.95,East,80,0.0,0.0,90,0.00,,,0.00,weatherlink.com 1.10,2013-06-22 09:54:00,
2013-06-22 06:09:00,68.5,66.0,29.94,SE,127,0.0,0.0,90,0.00,,,0.00,weatherlink.com 1.10,2013-06-22 10:09:00,
2013-06-22 06:24:00,68.6,65.0,29.95,SE,127,0.0,0.0,89,0.00,,,0.00,weatherlink.com 1.10,2013-06-22 10:24:00,
2013-06-22 06:39:00,68.4,65.0,29.96,SE,127,0.0,0.0,90,0.00,,,0.00,weatherlink.com 1.10,2013-06-22 10:39:00,
2013-06-22 06:54:00,68.3,65.0,29.97,SE,127,0.0,0.0,90,0.00,,,0.00,weatherlink.com 1.10,2013-06-22 10:54:00,
2013-06-22 07:09:00,68.4,65.0,29.97,SE,127,0.0,0.0,90,0.00,,,0.00,weatherlink.com 1.10,2013-06-22 11:09:00,
2013-06-22 07:24:00,68.7,66.0,29.98,SE,127,0.0,0.0,90,0.00,,,0.00,weatherlink.com 1.10,2013-06-22 11:24:00,
2013-06-22 07:39:00,69.1,66.0,29.98,SE,128,0.0,0.0,90,0.00,,,0.00,weatherlink.com 1.10,2013-06-22 11:39:00,
2013-06-22 07:54:00,69.6,66.0,29.98,SE,128,0.0,0.0,89,0.00,,,0.00,weatherlink.com 1.10,2013-06-22 11:54:00,
2013-06-22 08:09:00,70.2,67.0,29.98,SSW,200,0.0,0.0,88,0.00,,,0.00,weatherlink.com 1.10,2013-06-22 12:09:00,
2013-06-22 08:24:00,70.7,67.0,30.00,WNW,296,0.0,0.0,87,0.00,,,0.00,weatherlink.com 1.10,2013-06-22 12:24:00,
2013-06-22 08:39:00,71.0,67.0,30.00,West,277,0.0,0.0,86,0.00,,,0.00,weatherlink.com 1.10,2013-06-22 12:39:00,
2013-06-22 08:54:00,71.2,67.0,30.01,West,277,0.0,0.0,86,0.00,,,0.00,weatherlink.com 1.10,2013-06-22 12:54:00,
2013-06-22 09:09:00,71.8,67.0,30.01,WNW,283,0.0,0.0,85,0.00,,,0.00,weatherlink.com 1.10,2013-06-22 13:09:00,
2013-06-22 09:24:00,73.0,68.0,30.01,West,266,0.0,0.0,83,0.00,,,0.00,weatherlink.com 1.10,2013-06-22 13:24:00,
2013-06-22 09:39:00,73.7,68.0,30.02,WNW,290,0.0,0.0,82,0.00,,,0.00,weatherlink.com 1.10,2013-06-22 13:39:00,
2013-06-22 09:54:00,74.7,68.0,30.02,WNW,291,0.0,0.0,80,0.00,,,0.00,weatherlink.com 1.10,2013-06-22 13:54:00,
2013-06-22 10:09:00,75.1,69.0,30.02,NW,314,0.0,0.0,80,0.00,,,0.00,weatherlink.com 1.10,2013-06-22 14:09:00,
2013-06-22 10:24:00,75.0,68.0,30.01,NW,321,0.0,0.0,79,0.00,,,0.00,weatherlink.com 1.10,2013-06-22 14:24:00,
2013-06-22 10:39:00,77.0,69.0,30.01,SSE,148,0.0,0.0,76,0.00,,,0.00,weatherlink.com 1.10,2013-06-22 14:39:00,
2013-06-22 10:54:00,77.9,68.0,30.01,SE,124,0.0,0.0,72,0.00,,,0.00,weatherlink.com 1.10,2013-06-22 14:54:00,
2013-06-22 11:09:00,78.7,69.0,30.01,SE,124,0.0,0.0,73,0.00,,,0.00,weatherlink.com 1.10,2013-06-22 15:09:00,
2013-06-22 11:24:00,80.8,70.0,30.00,SE,136,0.0,0.0,70,0.00,,,0.00,weatherlink.com 1.10,2013-06-22 15:24:00,
2013-06-22 11:39:00,81.2,69.0,30.00,SSE,147,0.0,0.0,66,0.00,,,0.00,weatherlink.com 1.10,2013-06-22 15:39:00,
2013-06-22 11:55:00,81.1,69.0,30.01,SE,144,0.0,0.0,66,0.00,,,0.00,weatherlink.com 1.10,2013-06-22 15:55:00,
2013-06-22 12:10:00,79.3,70.0,30.02,West,281,0.0,0.0,72,0.00,,,0.00,weatherlink.com 1.10,2013-06-22 16:10:00,
2013-06-22 12:25:00,78.1,69.0,30.02,WNW,302,0.0,0.0,74,0.00,,,0.00,weatherlink.com 1.10,2013-06-22 16:25:00,
2013-06-22 12:40:00,77.8,69.0,30.03,WNW,301,0.0,0.0,74,0.00,,,0.00,weatherlink.com 1.10,2013-06-22 16:40:00,
2013-06-22 12:55:00,78.7,70.0,30.03,WNW,301,0.0,0.0,75,0.00,,,0.00,weatherlink.com 1.10,2013-06-22 16:55:00,
2013-06-22 13:10:00,78.9,70.0,30.03,WNW,303,0.0,0.0,73,0.00,,,0.00,weatherlink.com 1.10,2013-06-22 17:10:00,
2013-06-22 13:25:00,79.3,70.0,30.02,WNW,302,0.0,0.0,73,0.00,,,0.00,weatherlink.com 1.10,2013-06-22 17:25:00,
2013-06-22 13:40:00,79.5,70.0,30.01,WNW,302,0.0,0.0,72,0.00,,,0.00,weatherlink.com 1.10,2013-06-22 17:40:00,
2013-06-22 13:55:00,80.7,71.0,30.00,NW,304,0.0,0.0,72,0.00,,,0.00,weatherlink.com 1.10,2013-06-22 17:55:00,
2013-06-22 14:10:00,81.5,71.0,30.00,NW,304,0.0,0.0,70,0.00,,,0.00,weatherlink.com 1.10,2013-06-22 18:10:00,
2013-06-22 14:25:00,81.8,71.0,29.99,WNW,282,0.0,0.0,69,0.00,,,0.00,weatherlink.com 1.10,2013-06-22 18:25:00,
2013-06-22 14:40:00,82.4,69.0,30.00,SE,124,0.0,0.0,65,0.00,,,0.00,weatherlink.com 1.10,2013-06-22 18:40:00,
2013-06-22 14:55:00,81.9,69.0,29.97,NW,324,0.0,0.0,66,0.00,,,0.00,weatherlink.com 1.10,2013-06-22 18:55:00,
2013-06-22 15:10:00,83.4,70.0,29.96,ESE,123,0.0,0.0,64,0.00,,,0.00,weatherlink.com 1.10,2013-06-22 19:10:00,
2013-06-22 15:25:00,84.2,69.0,29.95,SE,143,0.0,0.0,61,0.00,,,0.00,weatherlink.com 1.10,2013-06-22 19:25:00,
2013-06-22 15:40:00,83.8,69.0,29.94,WNW,295,0.0,0.0,61,0.00,,,0.00,weatherlink.com 1.10,2013-06-22 19:40:00,
2013-06-22 15:55:00,84.0,69.0,29.92,SE,141,0.0,0.0,60,0.00,,,0.00,weatherlink.com 1.10,2013-06-22 19:55:00,
2013-06-22 16:10:00,84.2,69.0,29.91,SW,232,0.0,0.0,60,0.00,,,0.00,weatherlink.com 1.10,2013-06-22 20:10:00,
2013-06-22 16:25:00,84.1,69.0,29.91,ESE,122,0.0,0.0,60,0.00,,,0.00,weatherlink.com 1.10,2013-06-22 20:25:00,
2013-06-22 16:40:00,83.7,69.0,29.91,SE,145,0.0,0.0,61,0.00,,,0.00,weatherlink.com 1.10,2013-06-22 20:40:00,
2013-06-22 16:55:00,84.0,69.0,29.89,SSE,158,0.0,0.0,61,0.00,,,0.00,weatherlink.com 1.10,2013-06-22 20:55:00,
2013-06-22 17:10:00,84.1,68.0,29.89,WSW,242,0.0,0.0,59,0.00,,,0.00,weatherlink.com 1.10,2013-06-22 21:10:00,
2013-06-22 17:25:00,83.8,70.0,29.90,WSW,242,0.0,0.0,63,0.00,,,0.00,weatherlink.com 1.10,2013-06-22 21:25:00,
2013-06-22 17:40:00,83.9,69.0,29.90,NNE,18,0.0,0.0,62,0.00,,,0.00,weatherlink.com 1.10,2013-06-22 21:40:00,
2013-06-22 17:55:00,83.8,70.0,29.91,North,10,0.0,0.0,63,0.00,,,0.00,weatherlink.com 1.10,2013-06-22 21:55:00,
2013-06-22 18:10:00,83.4,69.0,29.93,South,184,0.0,0.0,63,0.00,,,0.00,weatherlink.com 1.10,2013-06-22 22:10:00,
2013-06-22 18:25:00,83.2,70.0,29.94,West,276,0.0,0.0,65,0.00,,,0.00,weatherlink.com 1.10,2013-06-22 22:25:00,
2013-06-22 18:40:00,82.7,69.0,29.94,West,276,0.0,0.0,64,0.00,,,0.00,weatherlink.com 1.10,2013-06-22 22:40:00,
2013-06-22 18:55:00,82.4,69.0,29.94,West,274,0.0,0.0,64,0.00,,,0.00,weatherlink.com 1.10,2013-06-22 22:55:00,
2013-06-22 19:10:00,81.6,69.0,29.94,West,273,0.0,0.0,66,0.00,,,0.00,weatherlink.com 1.10,2013-06-22 23:10:00,
2013-06-22 19:25:00,81.3,69.0,29.94,South,186,0.0,0.0,67,0.00,,,0.00,weatherlink.com 1.10,2013-06-22 23:25:00,
2013-06-22 19:40:00,81.1,70.0,29.94,South,177,0.0,0.0,68,0.00,,,0.00,weatherlink.com 1.10,2013-06-22 23:40:00,
2013-06-22 19:55:00,80.7,70.0,29.93,South,177,0.0,0.0,69,0.00,,,0.00,weatherlink.com 1.10,2013-06-22 23:55:00,
2013-06-22 20:10:00,80.3,69.0,29.93,South,178,0.0,0.0,69,0.00,,,0.00,weatherlink.com 1.10,2013-06-23 00:10:00,
2013-06-22 20:25:00,79.7,70.0,29.94,South,177,0.0,0.0,72,0.00,,,0.00,weatherlink.com 1.10,2013-06-23 00:25:00,
2013-06-22 20:40:00,79.0,70.0,29.94,South,177,0.0,0.0,75,0.00,,,0.00,weatherlink.com 1.10,2013-06-23 00:40:00,
2013-06-22 20:55:00,78.1,70.0,29.94,South,177,0.0,0.0,75,0.00,,,0.00,weatherlink.com 1.10,2013-06-23 00:55:00,
2013-06-22 21:10:00,77.5,69.0,29.94,South,177,0.0,0.0,76,0.00,,,0.00,weatherlink.com 1.10,2013-06-23 01:10:00,
2013-06-22 21:25:00,77.0,69.0,29.94,NNW,339,0.0,0.0,77,0.00,,,0.00,weatherlink.com 1.10,2013-06-23 01:25:00,
2013-06-22 21:40:00,76.4,69.0,29.95,NNW,339,0.0,0.0,78,0.00,,,0.00,weatherlink.com 1.10,2013-06-23 01:40:00,
2013-06-22 21:55:00,76.0,69.0,29.95,NNW,341,0.0,0.0,78,0.00,,,0.00,weatherlink.com 1.10,2013-06-23 01:55:00,
2013-06-22 22:10:00,75.6,69.0,29.95,NNW,341,0.0,0.0,80,0.00,,,0.00,weatherlink.com 1.10,2013-06-23 02:10:00,
2013-06-22 22:25:00,75.1,69.0,29.95,NNW,341,0.0,0.0,81,0.00,,,0.00,weatherlink.com 1.10,2013-06-23 02:25:00,
2013-06-22 22:40:00,74.6,69.0,29.95,NNW,343,0.0,0.0,82,0.00,,,0.00,weatherlink.com 1.10,2013-06-23 02:40:00,
2013-06-22 22:55:00,74.3,69.0,29.96,NNW,343,0.0,0.0,83,0.00,,,0.00,weatherlink.com 1.10,2013-06-23 02:55:00,
2013-06-22 23:10:00,73.8,69.0,29.97,NNW,343,0.0,0.0,84,0.00,,,0.00,weatherlink.com 1.10,2013-06-23 03:10:00,
2013-06-22 23:25:00,73.3,69.0,29.97,NNW,343,0.0,0.0,85,0.00,,,0.00,weatherlink.com 1.10,2013-06-23 03:25:00,
2013-06-22 23:40:00,73.0,68.0,29.97,NNW,343,0.0,0.0,85,0.00,,,0.00,weatherlink.com 1.10,2013-06-23 03:40:00,
2013-06-22 23:55:00,72.8,68.0,29.97,NNW,343,0.0,0.0,86,0.00,,,0.00,weatherlink.com 1.10,2013-06-23 03:55:00,